sensor_id;sensor_type;location;lat;lon;timestamp;P1;durP1;ratioP1;P2;durP2;ratioP2
71969;SDS011;59838;52.152;5.436;2024-01-27T00:00:16;8.90;;;1.70;;
71969;SDS011;59838;52.152;5.436;2024-01-27T00:02:43;9.80;;;1.42;;
71969;SDS011;59838;52.152;5.436;2024-01-27T00:05:10;9.63;;;1.42;;
71969;SDS011;59838;52.152;5.436;2024-01-27T00:07:36;8.13;;;1.10;;
71969;SDS011;59838;52.152;5.436;2024-01-27T00:10:03;8.52;;;0.73;;
71969;SDS011;59838;52.152;5.436;2024-01-27T00:12:30;10.50;;;1.20;;
71969;SDS011;59838;52.152;5.436;2024-01-27T00:14:56;3.50;;;0.40;;
71969;SDS011;59838;52.152;5.436;2024-01-27T00:17:24;5.75;;;0.98;;
71969;SDS011;59838;52.152;5.436;2024-01-27T00:19:52;5.00;;;0.93;;
71969;SDS011;59838;52.152;5.436;2024-01-27T00:22:18;3.42;;;0.95;;
71969;SDS011;59838;52.152;5.436;2024-01-27T00:24:47;12.87;;;1.33;;
71969;SDS011;59838;52.152;5.436;2024-01-27T00:27:13;4.63;;;1.35;;
71969;SDS011;59838;52.152;5.436;2024-01-27T00:29:40;7.93;;;1.45;;
71969;SDS011;59838;52.152;5.436;2024-01-27T00:32:06;3.28;;;0.75;;
71969;SDS011;59838;52.152;5.436;2024-01-27T00:34:33;4.47;;;1.38;;
71969;SDS011;59838;52.152;5.436;2024-01-27T00:36:59;9.83;;;1.00;;
71969;SDS011;59838;52.152;5.436;2024-01-27T00:39:26;6.80;;;1.05;;
71969;SDS011;59838;52.152;5.436;2024-01-27T00:41:53;10.88;;;1.20;;
71969;SDS011;59838;52.152;5.436;2024-01-27T00:44:21;4.88;;;1.00;;
71969;SDS011;59838;52.152;5.436;2024-01-27T00:46:47;6.55;;;0.98;;
71969;SDS011;59838;52.152;5.436;2024-01-27T00:49:14;3.93;;;1.13;;
71969;SDS011;59838;52.152;5.436;2024-01-27T00:51:41;7.20;;;1.98;;
71969;SDS011;59838;52.152;5.436;2024-01-27T00:54:07;7.18;;;0.68;;
71969;SDS011;59838;52.152;5.436;2024-01-27T00:56:34;5.90;;;0.75;;
71969;SDS011;59838;52.152;5.436;2024-01-27T00:59:00;9.77;;;1.05;;
71969;SDS011;59838;52.152;5.436;2024-01-27T01:01:27;10.63;;;1.33;;
71969;SDS011;59838;52.152;5.436;2024-01-27T01:03:53;7.07;;;1.40;;
71969;SDS011;59838;52.152;5.436;2024-01-27T01:06:20;10.15;;;0.95;;
71969;SDS011;59838;52.152;5.436;2024-01-27T01:08:46;8.68;;;1.08;;
71969;SDS011;59838;52.152;5.436;2024-01-27T01:11:13;8.38;;;1.30;;
71969;SDS011;59838;52.152;5.436;2024-01-27T01:13:41;5.63;;;0.93;;
71969;SDS011;59838;52.152;5.436;2024-01-27T01:16:07;8.88;;;1.02;;
71969;SDS011;59838;52.152;5.436;2024-01-27T01:18:34;4.63;;;0.90;;
71969;SDS011;59838;52.152;5.436;2024-01-27T01:21:01;4.50;;;1.00;;
71969;SDS011;59838;52.152;5.436;2024-01-27T01:23:27;9.70;;;0.50;;
71969;SDS011;59838;52.152;5.436;2024-01-27T01:25:54;6.53;;;0.90;;
71969;SDS011;59838;52.152;5.436;2024-01-27T01:28:20;6.97;;;0.63;;
71969;SDS011;59838;52.152;5.436;2024-01-27T01:30:47;2.50;;;0.75;;
71969;SDS011;59838;52.152;5.436;2024-01-27T01:33:13;11.35;;;1.20;;
71969;SDS011;59838;52.152;5.436;2024-01-27T01:35:40;9.50;;;1.23;;
71969;SDS011;59838;52.152;5.436;2024-01-27T01:38:07;10.40;;;1.23;;
71969;SDS011;59838;52.152;5.436;2024-01-27T01:40:33;9.13;;;0.90;;
71969;SDS011;59838;52.152;5.436;2024-01-27T01:43:00;9.70;;;1.42;;
71969;SDS011;59838;52.152;5.436;2024-01-27T01:45:27;12.65;;;1.13;;
71969;SDS011;59838;52.152;5.436;2024-01-27T01:47:53;5.03;;;0.90;;
71969;SDS011;59838;52.152;5.436;2024-01-27T01:50:20;4.17;;;0.60;;
71969;SDS011;59838;52.152;5.436;2024-01-27T01:52:48;6.60;;;1.48;;
71969;SDS011;59838;52.152;5.436;2024-01-27T01:55:16;3.95;;;0.63;;
71969;SDS011;59838;52.152;5.436;2024-01-27T01:57:43;3.83;;;1.63;;
71969;SDS011;59838;52.152;5.436;2024-01-27T02:00:10;8.80;;;1.23;;
71969;SDS011;59838;52.152;5.436;2024-01-27T02:02:37;9.57;;;0.77;;
71969;SDS011;59838;52.152;5.436;2024-01-27T02:05:04;4.00;;;0.80;;
71969;SDS011;59838;52.152;5.436;2024-01-27T02:07:31;6.80;;;0.88;;
71969;SDS011;59838;52.152;5.436;2024-01-27T02:09:57;6.15;;;0.77;;
71969;SDS011;59838;52.152;5.436;2024-01-27T02:12:24;9.63;;;1.40;;
71969;SDS011;59838;52.152;5.436;2024-01-27T02:14:51;4.40;;;0.70;;
71969;SDS011;59838;52.152;5.436;2024-01-27T02:17:17;7.30;;;1.05;;
71969;SDS011;59838;52.152;5.436;2024-01-27T02:19:44;3.88;;;0.90;;
71969;SDS011;59838;52.152;5.436;2024-01-27T02:22:10;6.22;;;0.90;;
71969;SDS011;59838;52.152;5.436;2024-01-27T02:24:37;7.65;;;1.02;;
71969;SDS011;59838;52.152;5.436;2024-01-27T02:27:03;4.10;;;0.60;;
71969;SDS011;59838;52.152;5.436;2024-01-27T02:29:30;3.70;;;0.80;;
71969;SDS011;59838;52.152;5.436;2024-01-27T02:31:56;6.60;;;1.05;;
71969;SDS011;59838;52.152;5.436;2024-01-27T02:34:23;5.22;;;0.50;;
71969;SDS011;59838;52.152;5.436;2024-01-27T02:36:50;2.90;;;0.43;;
71969;SDS011;59838;52.152;5.436;2024-01-27T02:39:16;6.32;;;0.70;;
71969;SDS011;59838;52.152;5.436;2024-01-27T02:41:43;6.13;;;0.93;;
71969;SDS011;59838;52.152;5.436;2024-01-27T02:44:09;12.55;;;1.33;;
71969;SDS011;59838;52.152;5.436;2024-01-27T02:46:36;12.23;;;0.90;;
71969;SDS011;59838;52.152;5.436;2024-01-27T02:49:02;4.13;;;0.73;;
71969;SDS011;59838;52.152;5.436;2024-01-27T02:51:29;7.82;;;1.52;;
71969;SDS011;59838;52.152;5.436;2024-01-27T02:53:55;7.90;;;1.20;;
71969;SDS011;59838;52.152;5.436;2024-01-27T02:56:22;8.02;;;1.13;;
71969;SDS011;59838;52.152;5.436;2024-01-27T02:58:48;8.30;;;1.30;;
71969;SDS011;59838;52.152;5.436;2024-01-27T03:01:15;2.50;;;0.50;;
71969;SDS011;59838;52.152;5.436;2024-01-27T03:03:41;8.77;;;1.00;;
71969;SDS011;59838;52.152;5.436;2024-01-27T03:06:08;4.65;;;0.77;;
71969;SDS011;59838;52.152;5.436;2024-01-27T03:08:35;4.35;;;0.68;;
71969;SDS011;59838;52.152;5.436;2024-01-27T03:11:01;11.90;;;1.05;;
71969;SDS011;59838;52.152;5.436;2024-01-27T03:13:28;3.05;;;0.70;;
71969;SDS011;59838;52.152;5.436;2024-01-27T03:15:54;2.20;;;0.30;;
71969;SDS011;59838;52.152;5.436;2024-01-27T03:18:22;7.93;;;1.35;;
71969;SDS011;59838;52.152;5.436;2024-01-27T03:20:48;7.93;;;0.47;;
71969;SDS011;59838;52.152;5.436;2024-01-27T03:23:15;10.93;;;0.70;;
71969;SDS011;59838;52.152;5.436;2024-01-27T03:25:41;6.60;;;0.60;;
71969;SDS011;59838;52.152;5.436;2024-01-27T03:28:08;6.63;;;0.90;;
71969;SDS011;59838;52.152;5.436;2024-01-27T03:30:35;6.15;;;0.45;;
71969;SDS011;59838;52.152;5.436;2024-01-27T03:33:01;4.75;;;0.60;;
71969;SDS011;59838;52.152;5.436;2024-01-27T03:35:28;6.18;;;0.80;;
71969;SDS011;59838;52.152;5.436;2024-01-27T03:37:55;2.30;;;0.55;;
71969;SDS011;59838;52.152;5.436;2024-01-27T03:40:21;7.80;;;0.83;;
71969;SDS011;59838;52.152;5.436;2024-01-27T03:42:47;8.20;;;0.70;;
71969;SDS011;59838;52.152;5.436;2024-01-27T03:45:14;3.22;;;0.50;;
71969;SDS011;59838;52.152;5.436;2024-01-27T03:47:40;10.57;;;0.73;;
71969;SDS011;59838;52.152;5.436;2024-01-27T03:50:07;3.45;;;0.47;;
71969;SDS011;59838;52.152;5.436;2024-01-27T03:52:34;8.77;;;1.20;;
71969;SDS011;59838;52.152;5.436;2024-01-27T03:55:01;12.73;;;1.05;;
71969;SDS011;59838;52.152;5.436;2024-01-27T03:57:27;8.02;;;0.93;;
71969;SDS011;59838;52.152;5.436;2024-01-27T03:59:54;5.15;;;0.90;;
71969;SDS011;59838;52.152;5.436;2024-01-27T04:02:20;4.80;;;0.90;;
71969;SDS011;59838;52.152;5.436;2024-01-27T04:04:47;6.03;;;1.23;;
71969;SDS011;59838;52.152;5.436;2024-01-27T04:07:14;9.05;;;1.40;;
71969;SDS011;59838;52.152;5.436;2024-01-27T04:09:40;12.80;;;1.63;;
71969;SDS011;59838;52.152;5.436;2024-01-27T04:12:07;9.98;;;0.90;;
71969;SDS011;59838;52.152;5.436;2024-01-27T04:14:34;5.70;;;0.90;;
71969;SDS011;59838;52.152;5.436;2024-01-27T04:17:01;4.53;;;1.50;;
71969;SDS011;59838;52.152;5.436;2024-01-27T04:19:27;13.75;;;1.65;;
71969;SDS011;59838;52.152;5.436;2024-01-27T04:21:54;9.23;;;1.70;;
71969;SDS011;59838;52.152;5.436;2024-01-27T04:24:20;6.38;;;1.58;;
71969;SDS011;59838;52.152;5.436;2024-01-27T04:26:47;6.93;;;1.90;;
71969;SDS011;59838;52.152;5.436;2024-01-27T04:29:14;12.03;;;1.37;;
71969;SDS011;59838;52.152;5.436;2024-01-27T04:31:41;4.50;;;1.88;;
71969;SDS011;59838;52.152;5.436;2024-01-27T04:34:08;3.80;;;1.60;;
71969;SDS011;59838;52.152;5.436;2024-01-27T04:36:34;5.53;;;1.73;;
71969;SDS011;59838;52.152;5.436;2024-01-27T04:39:01;7.20;;;1.75;;
71969;SDS011;59838;52.152;5.436;2024-01-27T04:41:28;12.73;;;2.20;;
71969;SDS011;59838;52.152;5.436;2024-01-27T04:43:55;4.55;;;1.50;;
71969;SDS011;59838;52.152;5.436;2024-01-27T04:46:23;7.22;;;1.75;;
71969;SDS011;59838;52.152;5.436;2024-01-27T04:48:49;8.10;;;2.03;;
71969;SDS011;59838;52.152;5.436;2024-01-27T04:51:16;11.00;;;2.00;;
71969;SDS011;59838;52.152;5.436;2024-01-27T04:53:42;12.17;;;2.40;;
71969;SDS011;59838;52.152;5.436;2024-01-27T04:56:09;5.63;;;1.55;;
71969;SDS011;59838;52.152;5.436;2024-01-27T04:58:36;9.93;;;2.33;;
71969;SDS011;59838;52.152;5.436;2024-01-27T05:01:03;12.93;;;2.47;;
71969;SDS011;59838;52.152;5.436;2024-01-27T05:03:29;5.07;;;2.03;;
71969;SDS011;59838;52.152;5.436;2024-01-27T05:05:56;12.20;;;2.93;;
71969;SDS011;59838;52.152;5.436;2024-01-27T05:08:22;9.85;;;1.98;;
71969;SDS011;59838;52.152;5.436;2024-01-27T05:10:49;5.93;;;2.15;;
71969;SDS011;59838;52.152;5.436;2024-01-27T05:13:16;9.60;;;2.03;;
71969;SDS011;59838;52.152;5.436;2024-01-27T05:15:42;12.20;;;2.55;;
71969;SDS011;59838;52.152;5.436;2024-01-27T05:18:09;6.37;;;2.90;;
71969;SDS011;59838;52.152;5.436;2024-01-27T05:20:36;6.93;;;2.70;;
71969;SDS011;59838;52.152;5.436;2024-01-27T05:23:03;11.05;;;1.75;;
71969;SDS011;59838;52.152;5.436;2024-01-27T05:25:29;10.35;;;2.75;;
71969;SDS011;59838;52.152;5.436;2024-01-27T05:27:56;11.30;;;2.50;;
71969;SDS011;59838;52.152;5.436;2024-01-27T05:30:22;12.00;;;2.40;;
71969;SDS011;59838;52.152;5.436;2024-01-27T05:32:49;8.70;;;2.33;;
71969;SDS011;59838;52.152;5.436;2024-01-27T05:35:15;8.00;;;2.15;;
71969;SDS011;59838;52.152;5.436;2024-01-27T05:37:42;6.63;;;2.35;;
71969;SDS011;59838;52.152;5.436;2024-01-27T05:40:08;4.40;;;2.00;;
71969;SDS011;59838;52.152;5.436;2024-01-27T05:42:36;16.77;;;2.97;;
71969;SDS011;59838;52.152;5.436;2024-01-27T05:45:03;10.23;;;2.85;;
71969;SDS011;59838;52.152;5.436;2024-01-27T05:47:30;10.38;;;2.63;;
71969;SDS011;59838;52.152;5.436;2024-01-27T05:49:57;5.75;;;3.08;;
71969;SDS011;59838;52.152;5.436;2024-01-27T05:52:23;5.68;;;3.03;;
71969;SDS011;59838;52.152;5.436;2024-01-27T05:54:52;4.87;;;2.43;;
71969;SDS011;59838;52.152;5.436;2024-01-27T05:57:19;7.60;;;2.42;;
71969;SDS011;59838;52.152;5.436;2024-01-27T05:59:46;6.93;;;2.75;;
71969;SDS011;59838;52.152;5.436;2024-01-27T06:02:12;9.73;;;3.38;;
71969;SDS011;59838;52.152;5.436;2024-01-27T06:04:39;7.68;;;3.03;;
71969;SDS011;59838;52.152;5.436;2024-01-27T06:07:06;12.40;;;3.37;;
71969;SDS011;59838;52.152;5.436;2024-01-27T06:09:32;9.48;;;2.83;;
71969;SDS011;59838;52.152;5.436;2024-01-27T06:11:59;11.80;;;2.83;;
71969;SDS011;59838;52.152;5.436;2024-01-27T06:14:27;11.45;;;3.35;;
71969;SDS011;59838;52.152;5.436;2024-01-27T06:16:53;5.38;;;3.00;;
71969;SDS011;59838;52.152;5.436;2024-01-27T06:19:20;8.83;;;3.77;;
71969;SDS011;59838;52.152;5.436;2024-01-27T06:21:46;13.55;;;3.40;;
71969;SDS011;59838;52.152;5.436;2024-01-27T06:24:13;8.23;;;2.72;;
71969;SDS011;59838;52.152;5.436;2024-01-27T06:26:40;5.70;;;3.88;;
71969;SDS011;59838;52.152;5.436;2024-01-27T06:29:06;6.85;;;3.28;;
71969;SDS011;59838;52.152;5.436;2024-01-27T06:31:33;13.07;;;3.63;;
71969;SDS011;59838;52.152;5.436;2024-01-27T06:33:59;11.57;;;3.25;;
71969;SDS011;59838;52.152;5.436;2024-01-27T06:36:26;12.00;;;3.05;;
71969;SDS011;59838;52.152;5.436;2024-01-27T06:38:53;12.60;;;3.40;;
71969;SDS011;59838;52.152;5.436;2024-01-27T06:41:20;6.63;;;3.15;;
71969;SDS011;59838;52.152;5.436;2024-01-27T06:43:47;12.23;;;3.67;;
71969;SDS011;59838;52.152;5.436;2024-01-27T06:46:13;9.82;;;6.10;;
71969;SDS011;59838;52.152;5.436;2024-01-27T06:48:40;9.65;;;4.32;;
71969;SDS011;59838;52.152;5.436;2024-01-27T06:51:07;10.32;;;4.07;;
71969;SDS011;59838;52.152;5.436;2024-01-27T06:53:33;8.50;;;3.15;;
71969;SDS011;59838;52.152;5.436;2024-01-27T06:56:00;9.67;;;4.03;;
71969;SDS011;59838;52.152;5.436;2024-01-27T06:58:26;5.93;;;3.83;;
71969;SDS011;59838;52.152;5.436;2024-01-27T07:00:53;14.93;;;4.18;;
71969;SDS011;59838;52.152;5.436;2024-01-27T07:03:20;6.35;;;3.35;;
71969;SDS011;59838;52.152;5.436;2024-01-27T07:05:47;10.15;;;3.35;;
71969;SDS011;59838;52.152;5.436;2024-01-27T07:08:13;10.10;;;4.30;;
71969;SDS011;59838;52.152;5.436;2024-01-27T07:10:39;17.88;;;3.97;;
71969;SDS011;59838;52.152;5.436;2024-01-27T07:13:06;10.40;;;4.03;;
71969;SDS011;59838;52.152;5.436;2024-01-27T07:15:32;15.52;;;4.57;;
71969;SDS011;59838;52.152;5.436;2024-01-27T07:17:59;8.05;;;4.18;;
71969;SDS011;59838;52.152;5.436;2024-01-27T07:20:26;7.90;;;3.80;;
71969;SDS011;59838;52.152;5.436;2024-01-27T07:22:52;15.43;;;4.68;;
71969;SDS011;59838;52.152;5.436;2024-01-27T07:25:19;7.20;;;4.47;;
71969;SDS011;59838;52.152;5.436;2024-01-27T07:27:45;10.40;;;4.35;;
71969;SDS011;59838;52.152;5.436;2024-01-27T07:30:12;7.65;;;3.63;;
71969;SDS011;59838;52.152;5.436;2024-01-27T07:32:41;6.57;;;3.73;;
71969;SDS011;59838;52.152;5.436;2024-01-27T07:35:08;8.90;;;3.95;;
71969;SDS011;59838;52.152;5.436;2024-01-27T07:37:34;9.77;;;4.32;;
71969;SDS011;59838;52.152;5.436;2024-01-27T07:40:01;10.18;;;3.92;;
71969;SDS011;59838;52.152;5.436;2024-01-27T07:42:28;13.85;;;4.53;;
71969;SDS011;59838;52.152;5.436;2024-01-27T07:44:54;8.97;;;4.07;;
71969;SDS011;59838;52.152;5.436;2024-01-27T07:47:21;8.02;;;4.03;;
71969;SDS011;59838;52.152;5.436;2024-01-27T07:49:47;9.60;;;4.18;;
71969;SDS011;59838;52.152;5.436;2024-01-27T07:52:15;9.80;;;3.97;;
71969;SDS011;59838;52.152;5.436;2024-01-27T07:54:42;7.93;;;4.30;;
71969;SDS011;59838;52.152;5.436;2024-01-27T07:57:08;10.07;;;4.50;;
71969;SDS011;59838;52.152;5.436;2024-01-27T07:59:35;10.68;;;4.07;;
71969;SDS011;59838;52.152;5.436;2024-01-27T08:02:01;10.02;;;3.97;;
71969;SDS011;59838;52.152;5.436;2024-01-27T08:04:28;16.20;;;4.05;;
71969;SDS011;59838;52.152;5.436;2024-01-27T08:06:55;8.63;;;4.15;;
71969;SDS011;59838;52.152;5.436;2024-01-27T08:09:21;9.77;;;3.77;;
71969;SDS011;59838;52.152;5.436;2024-01-27T08:11:48;9.05;;;4.70;;
71969;SDS011;59838;52.152;5.436;2024-01-27T08:14:18;12.13;;;5.13;;
71969;SDS011;59838;52.152;5.436;2024-01-27T08:16:46;11.30;;;4.05;;
71969;SDS011;59838;52.152;5.436;2024-01-27T08:19:12;8.23;;;4.40;;
71969;SDS011;59838;52.152;5.436;2024-01-27T08:21:39;13.90;;;4.23;;
71969;SDS011;59838;52.152;5.436;2024-01-27T08:24:06;8.75;;;4.45;;
71969;SDS011;59838;52.152;5.436;2024-01-27T08:26:32;12.90;;;4.38;;
71969;SDS011;59838;52.152;5.436;2024-01-27T08:28:59;12.07;;;4.30;;
71969;SDS011;59838;52.152;5.436;2024-01-27T08:31:25;12.02;;;3.90;;
71969;SDS011;59838;52.152;5.436;2024-01-27T08:33:52;10.77;;;4.90;;
71969;SDS011;59838;52.152;5.436;2024-01-27T08:36:19;8.65;;;3.72;;
71969;SDS011;59838;52.152;5.436;2024-01-27T08:38:45;14.27;;;3.88;;
71969;SDS011;59838;52.152;5.436;2024-01-27T08:41:12;11.70;;;4.03;;
71969;SDS011;59838;52.152;5.436;2024-01-27T08:43:38;15.40;;;4.35;;
71969;SDS011;59838;52.152;5.436;2024-01-27T08:46:05;10.17;;;4.03;;
71969;SDS011;59838;52.152;5.436;2024-01-27T08:48:33;7.75;;;3.72;;
71969;SDS011;59838;52.152;5.436;2024-01-27T08:50:59;13.27;;;4.72;;
71969;SDS011;59838;52.152;5.436;2024-01-27T08:53:27;10.25;;;4.00;;
71969;SDS011;59838;52.152;5.436;2024-01-27T08:55:53;11.25;;;4.10;;
71969;SDS011;59838;52.152;5.436;2024-01-27T08:58:19;9.80;;;4.50;;
71969;SDS011;59838;52.152;5.436;2024-01-27T09:00:46;13.35;;;4.45;;
71969;SDS011;59838;52.152;5.436;2024-01-27T09:03:13;8.93;;;3.58;;
71969;SDS011;59838;52.152;5.436;2024-01-27T09:05:40;13.57;;;3.45;;
71969;SDS011;59838;52.152;5.436;2024-01-27T09:08:10;8.63;;;3.40;;
71969;SDS011;59838;52.152;5.436;2024-01-27T09:10:36;8.87;;;4.13;;
71969;SDS011;59838;52.152;5.436;2024-01-27T09:13:03;13.45;;;3.63;;
71969;SDS011;59838;52.152;5.436;2024-01-27T09:15:30;12.05;;;3.75;;
71969;SDS011;59838;52.152;5.436;2024-01-27T09:17:57;8.50;;;3.90;;
71969;SDS011;59838;52.152;5.436;2024-01-27T09:20:24;9.32;;;3.53;;
71969;SDS011;59838;52.152;5.436;2024-01-27T09:22:50;5.37;;;3.50;;
71969;SDS011;59838;52.152;5.436;2024-01-27T09:25:17;13.93;;;4.22;;
71969;SDS011;59838;52.152;5.436;2024-01-27T09:27:43;9.55;;;3.13;;
71969;SDS011;59838;52.152;5.436;2024-01-27T09:30:10;6.95;;;3.60;;
71969;SDS011;59838;52.152;5.436;2024-01-27T09:32:36;11.75;;;3.67;;
71969;SDS011;59838;52.152;5.436;2024-01-27T09:35:03;7.60;;;3.33;;
71969;SDS011;59838;52.152;5.436;2024-01-27T09:37:30;9.43;;;4.00;;
71969;SDS011;59838;52.152;5.436;2024-01-27T09:39:58;14.75;;;4.20;;
71969;SDS011;59838;52.152;5.436;2024-01-27T09:42:26;13.85;;;3.55;;
71969;SDS011;59838;52.152;5.436;2024-01-27T09:44:54;11.38;;;3.70;;
71969;SDS011;59838;52.152;5.436;2024-01-27T09:47:22;8.40;;;3.93;;
71969;SDS011;59838;52.152;5.436;2024-01-27T09:49:49;10.35;;;3.67;;
71969;SDS011;59838;52.152;5.436;2024-01-27T09:52:17;12.02;;;3.17;;
71969;SDS011;59838;52.152;5.436;2024-01-27T09:54:44;14.73;;;4.75;;
71969;SDS011;59838;52.152;5.436;2024-01-27T09:57:10;12.05;;;4.47;;
71969;SDS011;59838;52.152;5.436;2024-01-27T09:59:40;12.00;;;4.23;;
71969;SDS011;59838;52.152;5.436;2024-01-27T10:02:11;12.15;;;3.83;;
71969;SDS011;59838;52.152;5.436;2024-01-27T10:04:40;11.98;;;3.75;;
71969;SDS011;59838;52.152;5.436;2024-01-27T10:07:08;6.13;;;3.20;;
71969;SDS011;59838;52.152;5.436;2024-01-27T10:09:35;13.55;;;3.97;;
71969;SDS011;59838;52.152;5.436;2024-01-27T10:12:01;12.53;;;3.00;;
71969;SDS011;59838;52.152;5.436;2024-01-27T10:14:40;16.50;;;3.67;;
71969;SDS011;59838;52.152;5.436;2024-01-27T10:17:11;12.57;;;3.88;;
71969;SDS011;59838;52.152;5.436;2024-01-27T10:19:38;15.65;;;3.67;;
71969;SDS011;59838;52.152;5.436;2024-01-27T10:22:10;7.55;;;3.13;;
71969;SDS011;59838;52.152;5.436;2024-01-27T10:24:37;13.00;;;3.10;;
71969;SDS011;59838;52.152;5.436;2024-01-27T10:27:04;12.40;;;3.95;;
71969;SDS011;59838;52.152;5.436;2024-01-27T10:29:31;11.23;;;3.80;;
71969;SDS011;59838;52.152;5.436;2024-01-27T10:32:07;13.77;;;3.22;;
71969;SDS011;59838;52.152;5.436;2024-01-27T10:34:35;12.32;;;4.03;;
71969;SDS011;59838;52.152;5.436;2024-01-27T10:37:04;9.63;;;3.30;;
71969;SDS011;59838;52.152;5.436;2024-01-27T10:39:30;11.93;;;4.03;;
71969;SDS011;59838;52.152;5.436;2024-01-27T10:41:57;16.17;;;3.60;;
71969;SDS011;59838;52.152;5.436;2024-01-27T10:44:29;15.43;;;4.38;;
71969;SDS011;59838;52.152;5.436;2024-01-27T10:46:56;11.38;;;3.35;;
71969;SDS011;59838;52.152;5.436;2024-01-27T10:49:26;12.53;;;3.80;;
71969;SDS011;59838;52.152;5.436;2024-01-27T10:51:56;11.68;;;2.90;;
71969;SDS011;59838;52.152;5.436;2024-01-27T10:54:24;12.13;;;3.28;;
71969;SDS011;59838;52.152;5.436;2024-01-27T10:56:53;10.82;;;3.95;;
71969;SDS011;59838;52.152;5.436;2024-01-27T10:59:22;10.95;;;2.83;;
71969;SDS011;59838;52.152;5.436;2024-01-27T11:01:48;12.70;;;3.10;;
71969;SDS011;59838;52.152;5.436;2024-01-27T11:04:21;10.77;;;3.22;;
71969;SDS011;59838;52.152;5.436;2024-01-27T11:06:49;7.45;;;3.30;;
71969;SDS011;59838;52.152;5.436;2024-01-27T11:09:17;13.63;;;3.42;;
71969;SDS011;59838;52.152;5.436;2024-01-27T11:11:45;16.75;;;3.95;;
71969;SDS011;59838;52.152;5.436;2024-01-27T11:14:13;7.70;;;2.67;;
71969;SDS011;59838;52.152;5.436;2024-01-27T11:16:39;13.95;;;3.25;;
71969;SDS011;59838;52.152;5.436;2024-01-27T11:19:11;10.75;;;3.17;;
71969;SDS011;59838;52.152;5.436;2024-01-27T11:21:38;13.60;;;3.33;;
71969;SDS011;59838;52.152;5.436;2024-01-27T11:24:15;15.98;;;3.30;;
71969;SDS011;59838;52.152;5.436;2024-01-27T11:26:42;9.20;;;2.70;;
71969;SDS011;59838;52.152;5.436;2024-01-27T11:29:09;6.93;;;2.72;;
71969;SDS011;59838;52.152;5.436;2024-01-27T11:31:44;8.20;;;2.33;;
71969;SDS011;59838;52.152;5.436;2024-01-27T11:34:11;10.63;;;2.80;;
71969;SDS011;59838;52.152;5.436;2024-01-27T11:36:44;11.82;;;2.47;;
71969;SDS011;59838;52.152;5.436;2024-01-27T11:39:24;7.27;;;3.07;;
71969;SDS011;59838;52.152;5.436;2024-01-27T11:42:09;6.38;;;2.00;;
71969;SDS011;59838;52.152;5.436;2024-01-27T11:44:40;9.68;;;2.17;;
71969;SDS011;59838;52.152;5.436;2024-01-27T11:47:17;11.23;;;2.50;;
71969;SDS011;59838;52.152;5.436;2024-01-27T11:49:52;9.00;;;2.55;;
71969;SDS011;59838;52.152;5.436;2024-01-27T11:52:21;9.00;;;2.95;;
71969;SDS011;59838;52.152;5.436;2024-01-27T11:54:54;13.15;;;2.88;;
71969;SDS011;59838;52.152;5.436;2024-01-27T11:57:22;12.48;;;2.60;;
71969;SDS011;59838;52.152;5.436;2024-01-27T11:59:49;6.57;;;2.70;;
71969;SDS011;59838;52.152;5.436;2024-01-27T12:02:16;6.22;;;2.25;;
71969;SDS011;59838;52.152;5.436;2024-01-27T12:04:43;10.37;;;2.07;;
71969;SDS011;59838;52.152;5.436;2024-01-27T12:07:10;4.20;;;1.88;;
71969;SDS011;59838;52.152;5.436;2024-01-27T12:09:36;6.10;;;2.13;;
71969;SDS011;59838;52.152;5.436;2024-01-27T12:12:03;8.98;;;2.53;;
71969;SDS011;59838;52.152;5.436;2024-01-27T12:14:41;8.27;;;2.15;;
71969;SDS011;59838;52.152;5.436;2024-01-27T12:17:11;9.63;;;1.90;;
71969;SDS011;59838;52.152;5.436;2024-01-27T12:19:38;6.30;;;1.90;;
71969;SDS011;59838;52.152;5.436;2024-01-27T12:22:17;10.00;;;2.78;;
71969;SDS011;59838;52.152;5.436;2024-01-27T12:24:56;9.73;;;2.40;;
71969;SDS011;59838;52.152;5.436;2024-01-27T12:27:34;6.50;;;2.30;;
71969;SDS011;59838;52.152;5.436;2024-01-27T12:30:02;8.97;;;2.07;;
71969;SDS011;59838;52.152;5.436;2024-01-27T12:32:29;11.20;;;2.45;;
71969;SDS011;59838;52.152;5.436;2024-01-27T12:34:57;5.38;;;2.03;;
71969;SDS011;59838;52.152;5.436;2024-01-27T12:37:26;12.55;;;2.20;;
71969;SDS011;59838;52.152;5.436;2024-01-27T12:39:54;6.43;;;2.17;;
71969;SDS011;59838;52.152;5.436;2024-01-27T12:42:20;9.30;;;1.90;;
71969;SDS011;59838;52.152;5.436;2024-01-27T12:44:47;7.82;;;1.52;;
71969;SDS011;59838;52.152;5.436;2024-01-27T12:47:14;6.40;;;2.20;;
71969;SDS011;59838;52.152;5.436;2024-01-27T12:49:41;5.03;;;2.03;;
71969;SDS011;59838;52.152;5.436;2024-01-27T12:52:07;7.03;;;1.95;;
71969;SDS011;59838;52.152;5.436;2024-01-27T12:54:34;9.70;;;2.30;;
71969;SDS011;59838;52.152;5.436;2024-01-27T12:57:00;8.93;;;2.60;;
71969;SDS011;59838;52.152;5.436;2024-01-27T12:59:28;10.10;;;2.50;;
71969;SDS011;59838;52.152;5.436;2024-01-27T13:01:54;7.07;;;2.15;;
71969;SDS011;59838;52.152;5.436;2024-01-27T13:04:22;9.98;;;2.47;;
71969;SDS011;59838;52.152;5.436;2024-01-27T13:06:49;9.60;;;2.20;;
71969;SDS011;59838;52.152;5.436;2024-01-27T13:09:17;10.90;;;2.22;;
71969;SDS011;59838;52.152;5.436;2024-01-27T13:11:43;6.93;;;2.03;;
71969;SDS011;59838;52.152;5.436;2024-01-27T13:14:10;13.15;;;1.35;;
71969;SDS011;59838;52.152;5.436;2024-01-27T13:16:39;8.50;;;1.63;;
71969;SDS011;59838;52.152;5.436;2024-01-27T13:19:05;6.60;;;1.88;;
71969;SDS011;59838;52.152;5.436;2024-01-27T13:21:32;8.10;;;2.30;;
71969;SDS011;59838;52.152;5.436;2024-01-27T13:23:58;5.47;;;1.52;;
71969;SDS011;59838;52.152;5.436;2024-01-27T13:26:25;11.35;;;1.67;;
71969;SDS011;59838;52.152;5.436;2024-01-27T13:28:53;5.35;;;1.33;;
71969;SDS011;59838;52.152;5.436;2024-01-27T13:31:19;6.13;;;1.57;;
71969;SDS011;59838;52.152;5.436;2024-01-27T13:33:46;19.63;;;2.25;;
71969;SDS011;59838;52.152;5.436;2024-01-27T13:36:13;11.50;;;1.95;;
71969;SDS011;59838;52.152;5.436;2024-01-27T13:38:40;7.72;;;1.95;;
71969;SDS011;59838;52.152;5.436;2024-01-27T13:41:06;7.88;;;1.35;;
71969;SDS011;59838;52.152;5.436;2024-01-27T13:43:33;4.83;;;1.50;;
71969;SDS011;59838;52.152;5.436;2024-01-27T13:45:59;8.38;;;1.67;;
71969;SDS011;59838;52.152;5.436;2024-01-27T13:48:26;10.05;;;1.55;;
71969;SDS011;59838;52.152;5.436;2024-01-27T13:50:53;9.63;;;1.63;;
71969;SDS011;59838;52.152;5.436;2024-01-27T13:53:19;10.60;;;1.83;;
71969;SDS011;59838;52.152;5.436;2024-01-27T13:55:47;7.45;;;1.70;;
71969;SDS011;59838;52.152;5.436;2024-01-27T13:58:14;9.00;;;1.60;;
71969;SDS011;59838;52.152;5.436;2024-01-27T14:00:41;12.07;;;1.75;;
71969;SDS011;59838;52.152;5.436;2024-01-27T14:03:07;9.23;;;1.80;;
71969;SDS011;59838;52.152;5.436;2024-01-27T14:05:35;7.88;;;1.52;;
71969;SDS011;59838;52.152;5.436;2024-01-27T14:08:01;10.98;;;1.90;;
71969;SDS011;59838;52.152;5.436;2024-01-27T14:10:30;11.60;;;1.48;;
71969;SDS011;59838;52.152;5.436;2024-01-27T14:12:56;8.85;;;1.80;;
71969;SDS011;59838;52.152;5.436;2024-01-27T14:15:23;10.23;;;1.73;;
71969;SDS011;59838;52.152;5.436;2024-01-27T14:17:49;8.23;;;2.25;;
71969;SDS011;59838;52.152;5.436;2024-01-27T14:20:16;10.30;;;2.87;;
71969;SDS011;59838;52.152;5.436;2024-01-27T14:22:43;7.70;;;2.40;;
71969;SDS011;59838;52.152;5.436;2024-01-27T14:25:10;9.68;;;2.53;;
71969;SDS011;59838;52.152;5.436;2024-01-27T14:27:37;9.38;;;3.17;;
71969;SDS011;59838;52.152;5.436;2024-01-27T14:30:04;7.28;;;2.67;;
71969;SDS011;59838;52.152;5.436;2024-01-27T14:32:31;10.80;;;2.17;;
71969;SDS011;59838;52.152;5.436;2024-01-27T14:34:58;7.38;;;2.40;;
71969;SDS011;59838;52.152;5.436;2024-01-27T14:37:24;13.05;;;2.88;;
71969;SDS011;59838;52.152;5.436;2024-01-27T14:39:52;9.40;;;3.65;;
71969;SDS011;59838;52.152;5.436;2024-01-27T14:42:18;14.30;;;3.33;;